createdAt,value
2022-12-24T00:08:07.034Z,7.5
2022-12-24T00:23:16.512Z,7.5
2022-12-24T00:38:25.758Z,7.5
2022-12-24T00:53:35.579Z,7.4
2022-12-24T01:08:45.107Z,7.4
2022-12-24T01:23:54.475Z,7.4
2022-12-24T01:39:03.740Z,7.4
2022-12-24T01:54:12.971Z,7.6
2022-12-24T02:09:22.946Z,7.7
2022-12-24T02:24:32.538Z,7.7
2022-12-24T02:39:42.333Z,7.9
2022-12-24T02:54:51.729Z,8
2022-12-24T03:10:02.091Z,8.4
2022-12-24T03:25:47.544Z,9
2022-12-24T03:41:00.483Z,9
2022-12-24T03:56:10.028Z,9
2022-12-24T04:11:20.065Z,9.1
2022-12-24T04:26:29.928Z,9.1
2022-12-24T04:41:39.531Z,9.1
2022-12-24T04:56:49.445Z,9.2
2022-12-24T05:12:00.689Z,9.2
2022-12-24T05:27:10.346Z,9.3
2022-12-24T05:42:20.055Z,9.2
2022-12-24T05:57:29.767Z,9.1
2022-12-24T06:12:39.411Z,9
2022-12-24T06:27:48.750Z,9
2022-12-24T06:42:58.194Z,9.1
2022-12-24T06:58:07.829Z,9.2
2022-12-24T07:13:17.339Z,9.1
2022-12-24T07:28:28.169Z,9
2022-12-24T07:43:38.053Z,9
2022-12-24T07:58:47.570Z,9
2022-12-24T08:13:57.269Z,9
2022-12-24T08:29:06.617Z,9
2022-12-24T08:44:16.094Z,9
2022-12-24T08:59:25.859Z,9
2022-12-24T09:14:36.062Z,9
2022-12-24T09:29:45.551Z,9.1
2022-12-24T09:44:55.062Z,9.4
2022-12-24T10:00:04.880Z,9.6
2022-12-24T10:15:14.563Z,9.7
2022-12-24T10:30:24.469Z,9.8
2022-12-24T10:45:34.016Z,9.9
2022-12-24T11:00:43.787Z,9.9
2022-12-24T11:15:53.450Z,10
2022-12-24T11:31:03.535Z,9.8
2022-12-24T11:46:13.369Z,9.6
2022-12-24T12:01:23.204Z,9.6
2022-12-24T12:16:33.058Z,9.7
2022-12-24T12:31:42.467Z,9.6
2022-12-24T12:46:52.404Z,9.5
2022-12-24T13:02:02.500Z,9.5
2022-12-24T13:17:13.239Z,9.5
2022-12-24T13:32:22.771Z,9.2
2022-12-24T13:47:32.677Z,8.5
2022-12-24T14:02:43.261Z,8.3
2022-12-24T14:17:53.447Z,8.3
2022-12-24T14:33:02.972Z,8.5
2022-12-24T14:48:13.216Z,8.4
2022-12-24T15:03:22.664Z,8.4
2022-12-24T15:18:33.617Z,8.4
2022-12-24T15:33:43.005Z,8.4
2022-12-24T15:48:52.627Z,8.4
2022-12-24T16:04:02.730Z,8.5
2022-12-24T16:19:12.798Z,8.6
2022-12-24T16:34:22.414Z,8.6
2022-12-24T16:49:32.087Z,8.7
2022-12-24T17:04:41.488Z,8.6
2022-12-24T17:19:50.828Z,8.5
2022-12-24T17:35:01.484Z,8.4
2022-12-24T17:50:11.240Z,8.3
2022-12-24T18:05:20.661Z,8.2
2022-12-24T18:20:29.771Z,8.1
2022-12-24T18:35:39.403Z,8.1
2022-12-24T18:50:48.857Z,8.1
2022-12-24T19:06:00.164Z,8.1
2022-12-24T19:21:09.350Z,8
2022-12-24T19:36:18.828Z,7.9
2022-12-24T19:51:28.545Z,7.9
2022-12-24T20:06:38.364Z,7.8
2022-12-24T20:21:47.703Z,7.6
2022-12-24T20:36:57.189Z,7.6
2022-12-24T20:52:06.572Z,7.4
2022-12-24T21:07:16.372Z,7.4
2022-12-24T21:22:26.268Z,7.1
2022-12-24T21:37:35.671Z,7
2022-12-24T21:52:46.171Z,6.8
2022-12-24T22:07:55.529Z,6.6
2022-12-24T22:23:04.866Z,6.5
2022-12-24T22:38:15.046Z,6.3
2022-12-24T22:53:24.544Z,6.2
2022-12-24T23:08:34.421Z,6.1
2022-12-24T23:23:44.332Z,6.1
2022-12-24T23:38:53.657Z,6.1
2022-12-24T23:54:03.840Z,6
